sensor_id;sensor_type;location;lat;lon;timestamp;P1;durP1;ratioP1;P2;durP2;ratioP2
52015;SDS011;38032;53.326;6.472;2022-12-18T00:01:14;61.80;;;26.05;;
52015;SDS011;38032;53.326;6.472;2022-12-18T00:03:46;71.43;;;27.92;;
52015;SDS011;38032;53.326;6.472;2022-12-18T00:06:13;66.50;;;25.90;;
52015;SDS011;38032;53.326;6.472;2022-12-18T00:08:40;70.22;;;26.42;;
52015;SDS011;38032;53.326;6.472;2022-12-18T00:11:07;69.35;;;26.63;;
52015;SDS011;38032;53.326;6.472;2022-12-18T00:13:36;65.95;;;26.48;;
52015;SDS011;38032;53.326;6.472;2022-12-18T00:16:02;68.55;;;26.85;;
52015;SDS011;38032;53.326;6.472;2022-12-18T00:18:30;63.80;;;26.27;;
52015;SDS011;38032;53.326;6.472;2022-12-18T00:20:58;68.80;;;26.77;;
52015;SDS011;38032;53.326;6.472;2022-12-18T00:23:26;67.53;;;26.98;;
52015;SDS011;38032;53.326;6.472;2022-12-18T00:25:52;60.20;;;24.20;;
52015;SDS011;38032;53.326;6.472;2022-12-18T00:28:18;65.57;;;24.98;;
52015;SDS011;38032;53.326;6.472;2022-12-18T00:30:43;65.35;;;26.60;;
52015;SDS011;38032;53.326;6.472;2022-12-18T00:33:09;64.20;;;25.60;;
52015;SDS011;38032;53.326;6.472;2022-12-18T00:35:35;64.55;;;26.42;;
52015;SDS011;38032;53.326;6.472;2022-12-18T00:38:01;66.50;;;25.23;;
52015;SDS011;38032;53.326;6.472;2022-12-18T00:40:27;65.88;;;26.63;;
52015;SDS011;38032;53.326;6.472;2022-12-18T00:42:53;65.47;;;25.65;;
52015;SDS011;38032;53.326;6.472;2022-12-18T00:45:26;69.43;;;26.98;;
52015;SDS011;38032;53.326;6.472;2022-12-18T00:47:54;68.32;;;27.33;;
52015;SDS011;38032;53.326;6.472;2022-12-18T00:50:20;69.13;;;26.63;;
52015;SDS011;38032;53.326;6.472;2022-12-18T00:52:46;72.22;;;28.73;;
52015;SDS011;38032;53.326;6.472;2022-12-18T00:55:13;64.28;;;26.63;;
52015;SDS011;38032;53.326;6.472;2022-12-18T00:57:39;71.05;;;25.88;;
52015;SDS011;38032;53.326;6.472;2022-12-18T01:00:07;57.65;;;24.90;;
52015;SDS011;38032;53.326;6.472;2022-12-18T01:02:36;69.90;;;26.80;;
52015;SDS011;38032;53.326;6.472;2022-12-18T01:05:02;70.38;;;27.17;;
52015;SDS011;38032;53.326;6.472;2022-12-18T01:07:29;75.25;;;28.90;;
52015;SDS011;38032;53.326;6.472;2022-12-18T01:09:55;71.20;;;30.13;;
52015;SDS011;38032;53.326;6.472;2022-12-18T01:12:21;67.32;;;25.80;;
52015;SDS011;38032;53.326;6.472;2022-12-18T01:14:47;67.53;;;27.73;;
52015;SDS011;38032;53.326;6.472;2022-12-18T01:17:13;67.88;;;27.17;;
52015;SDS011;38032;53.326;6.472;2022-12-18T01:19:39;75.13;;;28.35;;
52015;SDS011;38032;53.326;6.472;2022-12-18T01:22:05;68.38;;;27.48;;
52015;SDS011;38032;53.326;6.472;2022-12-18T01:24:31;64.03;;;25.88;;
52015;SDS011;38032;53.326;6.472;2022-12-18T01:26:57;73.32;;;27.02;;
52015;SDS011;38032;53.326;6.472;2022-12-18T01:29:23;62.25;;;25.35;;
52015;SDS011;38032;53.326;6.472;2022-12-18T01:31:49;69.85;;;27.50;;
52015;SDS011;38032;53.326;6.472;2022-12-18T01:34:15;63.85;;;25.95;;
52015;SDS011;38032;53.326;6.472;2022-12-18T01:36:41;63.63;;;25.13;;
52015;SDS011;38032;53.326;6.472;2022-12-18T01:39:08;62.13;;;26.33;;
52015;SDS011;38032;53.326;6.472;2022-12-18T01:41:36;69.75;;;26.27;;
52015;SDS011;38032;53.326;6.472;2022-12-18T01:47:20;62.47;;;24.80;;
52015;SDS011;38032;53.326;6.472;2022-12-18T01:49:50;62.00;;;25.08;;
52015;SDS011;38032;53.326;6.472;2022-12-18T01:52:17;62.05;;;25.35;;
52015;SDS011;38032;53.326;6.472;2022-12-18T01:54:44;66.07;;;26.05;;
52015;SDS011;38032;53.326;6.472;2022-12-18T01:57:11;64.78;;;26.15;;
52015;SDS011;38032;53.326;6.472;2022-12-18T01:59:37;65.70;;;25.35;;
52015;SDS011;38032;53.326;6.472;2022-12-18T02:02:06;66.18;;;26.38;;
52015;SDS011;38032;53.326;6.472;2022-12-18T02:04:32;61.42;;;24.52;;
52015;SDS011;38032;53.326;6.472;2022-12-18T02:07:12;66.05;;;24.92;;
52015;SDS011;38032;53.326;6.472;2022-12-18T02:09:46;63.70;;;25.70;;
52015;SDS011;38032;53.326;6.472;2022-12-18T02:12:19;61.20;;;23.90;;
52015;SDS011;38032;53.326;6.472;2022-12-18T02:17:35;63.90;;;24.35;;
52015;SDS011;38032;53.326;6.472;2022-12-18T02:23:03;55.35;;;22.80;;
52015;SDS011;38032;53.326;6.472;2022-12-18T02:28:18;63.90;;;25.05;;
52015;SDS011;38032;53.326;6.472;2022-12-18T02:30:47;58.55;;;23.02;;
52015;SDS011;38032;53.326;6.472;2022-12-18T02:33:15;55.05;;;23.25;;
52015;SDS011;38032;53.326;6.472;2022-12-18T02:35:44;55.20;;;22.95;;
52015;SDS011;38032;53.326;6.472;2022-12-18T02:38:12;54.20;;;22.75;;
52015;SDS011;38032;53.326;6.472;2022-12-18T02:40:38;53.08;;;23.10;;
52015;SDS011;38032;53.326;6.472;2022-12-18T02:43:08;52.00;;;22.30;;
52015;SDS011;38032;53.326;6.472;2022-12-18T02:45:34;55.13;;;22.85;;
52015;SDS011;38032;53.326;6.472;2022-12-18T02:48:01;59.33;;;23.33;;
52015;SDS011;38032;53.326;6.472;2022-12-18T02:53:05;63.40;;;23.77;;
52015;SDS011;38032;53.326;6.472;2022-12-18T02:56:03;56.47;;;23.58;;
52015;SDS011;38032;53.326;6.472;2022-12-18T02:58:46;57.08;;;23.10;;
52015;SDS011;38032;53.326;6.472;2022-12-18T03:01:24;61.35;;;23.05;;
52015;SDS011;38032;53.326;6.472;2022-12-18T03:04:02;60.13;;;24.77;;
52015;SDS011;38032;53.326;6.472;2022-12-18T03:06:35;59.85;;;24.17;;
52015;SDS011;38032;53.326;6.472;2022-12-18T03:09:07;57.75;;;23.10;;
52015;SDS011;38032;53.326;6.472;2022-12-18T03:11:38;55.92;;;24.05;;
52015;SDS011;38032;53.326;6.472;2022-12-18T03:14:29;61.70;;;25.30;;
52015;SDS011;38032;53.326;6.472;2022-12-18T03:16:58;64.75;;;24.05;;
52015;SDS011;38032;53.326;6.472;2022-12-18T03:19:28;62.47;;;24.00;;
52015;SDS011;38032;53.326;6.472;2022-12-18T03:21:57;64.97;;;25.02;;
52015;SDS011;38032;53.326;6.472;2022-12-18T03:24:26;65.53;;;26.00;;
52015;SDS011;38032;53.326;6.472;2022-12-18T03:26:56;62.13;;;25.08;;
52015;SDS011;38032;53.326;6.472;2022-12-18T03:29:27;62.28;;;24.48;;
52015;SDS011;38032;53.326;6.472;2022-12-18T03:32:01;58.03;;;23.60;;
52015;SDS011;38032;53.326;6.472;2022-12-18T03:34:33;59.15;;;24.63;;
52015;SDS011;38032;53.326;6.472;2022-12-18T03:37:02;65.40;;;25.77;;
52015;SDS011;38032;53.326;6.472;2022-12-18T03:39:29;59.15;;;25.08;;
52015;SDS011;38032;53.326;6.472;2022-12-18T03:42:06;62.58;;;24.65;;
52015;SDS011;38032;53.326;6.472;2022-12-18T03:47:25;62.90;;;24.65;;
52015;SDS011;38032;53.326;6.472;2022-12-18T03:49:57;60.50;;;23.88;;
52015;SDS011;38032;53.326;6.472;2022-12-18T03:52:36;57.38;;;24.48;;
52015;SDS011;38032;53.326;6.472;2022-12-18T03:55:07;64.28;;;24.50;;
52015;SDS011;38032;53.326;6.472;2022-12-18T03:57:35;57.60;;;24.63;;
52015;SDS011;38032;53.326;6.472;2022-12-18T04:00:06;62.15;;;23.75;;
52015;SDS011;38032;53.326;6.472;2022-12-18T04:02:34;64.57;;;25.25;;
52015;SDS011;38032;53.326;6.472;2022-12-18T04:05:05;66.65;;;26.83;;
52015;SDS011;38032;53.326;6.472;2022-12-18T04:07:32;66.72;;;25.77;;
52015;SDS011;38032;53.326;6.472;2022-12-18T04:09:59;70.75;;;26.65;;
52015;SDS011;38032;53.326;6.472;2022-12-18T04:12:28;65.32;;;25.15;;
52015;SDS011;38032;53.326;6.472;2022-12-18T04:14:55;63.67;;;25.35;;
52015;SDS011;38032;53.326;6.472;2022-12-18T04:17:21;62.38;;;24.92;;
52015;SDS011;38032;53.326;6.472;2022-12-18T04:19:47;70.00;;;26.73;;
52015;SDS011;38032;53.326;6.472;2022-12-18T04:22:13;69.68;;;26.70;;
52015;SDS011;38032;53.326;6.472;2022-12-18T04:24:39;67.65;;;26.27;;
52015;SDS011;38032;53.326;6.472;2022-12-18T04:27:05;67.40;;;27.65;;
52015;SDS011;38032;53.326;6.472;2022-12-18T04:29:31;68.70;;;26.17;;
52015;SDS011;38032;53.326;6.472;2022-12-18T04:31:57;65.82;;;27.08;;
52015;SDS011;38032;53.326;6.472;2022-12-18T04:34:23;63.80;;;25.95;;
52015;SDS011;38032;53.326;6.472;2022-12-18T04:36:48;68.25;;;26.45;;
52015;SDS011;38032;53.326;6.472;2022-12-18T04:39:14;67.00;;;26.67;;
52015;SDS011;38032;53.326;6.472;2022-12-18T04:41:46;63.42;;;26.38;;
52015;SDS011;38032;53.326;6.472;2022-12-18T04:44:13;63.10;;;26.33;;
52015;SDS011;38032;53.326;6.472;2022-12-18T04:46:39;66.53;;;27.02;;
52015;SDS011;38032;53.326;6.472;2022-12-18T04:49:05;67.82;;;27.38;;
52015;SDS011;38032;53.326;6.472;2022-12-18T04:51:30;70.97;;;27.40;;
52015;SDS011;38032;53.326;6.472;2022-12-18T04:53:56;63.10;;;26.60;;
52015;SDS011;38032;53.326;6.472;2022-12-18T04:56:22;63.17;;;26.10;;
52015;SDS011;38032;53.326;6.472;2022-12-18T04:58:48;66.57;;;26.17;;
52015;SDS011;38032;53.326;6.472;2022-12-18T05:01:15;60.92;;;25.35;;
52015;SDS011;38032;53.326;6.472;2022-12-18T05:03:42;64.00;;;24.65;;
52015;SDS011;38032;53.326;6.472;2022-12-18T05:06:08;59.92;;;25.58;;
52015;SDS011;38032;53.326;6.472;2022-12-18T05:08:35;61.17;;;25.85;;
52015;SDS011;38032;53.326;6.472;2022-12-18T05:11:02;60.15;;;25.20;;
52015;SDS011;38032;53.326;6.472;2022-12-18T05:13:29;61.35;;;25.45;;
52015;SDS011;38032;53.326;6.472;2022-12-18T05:15:55;63.13;;;26.77;;
52015;SDS011;38032;53.326;6.472;2022-12-18T05:18:22;61.53;;;24.00;;
52015;SDS011;38032;53.326;6.472;2022-12-18T05:20:49;64.47;;;25.38;;
52015;SDS011;38032;53.326;6.472;2022-12-18T05:23:15;59.70;;;24.95;;
52015;SDS011;38032;53.326;6.472;2022-12-18T05:25:41;50.13;;;24.48;;
52015;SDS011;38032;53.326;6.472;2022-12-18T05:28:07;57.45;;;25.08;;
52015;SDS011;38032;53.326;6.472;2022-12-18T05:30:33;56.65;;;22.92;;
52015;SDS011;38032;53.326;6.472;2022-12-18T05:32:59;56.88;;;23.80;;
52015;SDS011;38032;53.326;6.472;2022-12-18T05:35:25;59.47;;;24.58;;
52015;SDS011;38032;53.326;6.472;2022-12-18T05:37:50;64.05;;;25.50;;
52015;SDS011;38032;53.326;6.472;2022-12-18T05:40:16;55.47;;;23.83;;
52015;SDS011;38032;53.326;6.472;2022-12-18T05:42:42;52.67;;;22.98;;
52015;SDS011;38032;53.326;6.472;2022-12-18T05:45:08;59.75;;;25.13;;
52015;SDS011;38032;53.326;6.472;2022-12-18T05:47:34;60.80;;;23.63;;
52015;SDS011;38032;53.326;6.472;2022-12-18T05:50:00;56.03;;;22.92;;
52015;SDS011;38032;53.326;6.472;2022-12-18T05:52:26;62.55;;;25.00;;
52015;SDS011;38032;53.326;6.472;2022-12-18T05:54:52;55.25;;;21.63;;
52015;SDS011;38032;53.326;6.472;2022-12-18T05:57:18;57.53;;;23.42;;
52015;SDS011;38032;53.326;6.472;2022-12-18T05:59:43;53.47;;;23.27;;
52015;SDS011;38032;53.326;6.472;2022-12-18T06:02:09;53.92;;;22.60;;
52015;SDS011;38032;53.326;6.472;2022-12-18T06:04:54;56.67;;;22.97;;
52015;SDS011;38032;53.326;6.472;2022-12-18T06:07:20;58.13;;;23.98;;
52015;SDS011;38032;53.326;6.472;2022-12-18T06:09:45;57.78;;;23.55;;
52015;SDS011;38032;53.326;6.472;2022-12-18T06:12:11;61.30;;;22.50;;
52015;SDS011;38032;53.326;6.472;2022-12-18T06:14:37;59.25;;;22.35;;
52015;SDS011;38032;53.326;6.472;2022-12-18T06:17:03;63.13;;;23.58;;
52015;SDS011;38032;53.326;6.472;2022-12-18T06:19:29;55.20;;;21.63;;
52015;SDS011;38032;53.326;6.472;2022-12-18T06:21:55;53.03;;;22.23;;
52015;SDS011;38032;53.326;6.472;2022-12-18T06:24:24;56.28;;;22.85;;
52015;SDS011;38032;53.326;6.472;2022-12-18T06:26:49;53.58;;;22.50;;
52015;SDS011;38032;53.326;6.472;2022-12-18T06:29:15;58.08;;;23.23;;
52015;SDS011;38032;53.326;6.472;2022-12-18T06:31:41;63.85;;;24.40;;
52015;SDS011;38032;53.326;6.472;2022-12-18T06:34:07;49.47;;;20.95;;
52015;SDS011;38032;53.326;6.472;2022-12-18T06:36:33;60.25;;;23.60;;
52015;SDS011;38032;53.326;6.472;2022-12-18T06:38:59;50.78;;;21.27;;
52015;SDS011;38032;53.326;6.472;2022-12-18T06:41:25;56.28;;;21.98;;
52015;SDS011;38032;53.326;6.472;2022-12-18T06:43:51;54.35;;;21.50;;
52015;SDS011;38032;53.326;6.472;2022-12-18T06:46:17;49.85;;;21.70;;
52015;SDS011;38032;53.326;6.472;2022-12-18T06:48:42;55.60;;;22.50;;
52015;SDS011;38032;53.326;6.472;2022-12-18T06:51:15;57.40;;;21.58;;
52015;SDS011;38032;53.326;6.472;2022-12-18T06:53:42;51.55;;;21.58;;
52015;SDS011;38032;53.326;6.472;2022-12-18T06:56:08;50.08;;;21.52;;
52015;SDS011;38032;53.326;6.472;2022-12-18T06:58:34;49.05;;;22.60;;
52015;SDS011;38032;53.326;6.472;2022-12-18T07:01:01;48.63;;;21.15;;
52015;SDS011;38032;53.326;6.472;2022-12-18T07:03:29;50.58;;;21.50;;
52015;SDS011;38032;53.326;6.472;2022-12-18T07:05:55;52.97;;;22.02;;
52015;SDS011;38032;53.326;6.472;2022-12-18T07:08:21;48.53;;;21.23;;
52015;SDS011;38032;53.326;6.472;2022-12-18T07:10:47;45.90;;;20.45;;
52015;SDS011;38032;53.326;6.472;2022-12-18T07:13:15;45.65;;;19.77;;
52015;SDS011;38032;53.326;6.472;2022-12-18T07:15:42;46.95;;;19.88;;
52015;SDS011;38032;53.326;6.472;2022-12-18T07:18:09;45.45;;;19.98;;
52015;SDS011;38032;53.326;6.472;2022-12-18T07:20:35;46.20;;;18.95;;
52015;SDS011;38032;53.326;6.472;2022-12-18T07:23:02;45.17;;;19.33;;
52015;SDS011;38032;53.326;6.472;2022-12-18T07:25:28;39.70;;;17.63;;
52015;SDS011;38032;53.326;6.472;2022-12-18T07:27:54;35.28;;;16.60;;
52015;SDS011;38032;53.326;6.472;2022-12-18T07:30:20;40.22;;;18.20;;
52015;SDS011;38032;53.326;6.472;2022-12-18T07:32:46;37.50;;;17.10;;
52015;SDS011;38032;53.326;6.472;2022-12-18T07:35:12;38.90;;;17.17;;
52015;SDS011;38032;53.326;6.472;2022-12-18T07:37:38;39.35;;;18.02;;
52015;SDS011;38032;53.326;6.472;2022-12-18T07:40:04;35.65;;;18.00;;
52015;SDS011;38032;53.326;6.472;2022-12-18T07:42:31;33.75;;;16.38;;
52015;SDS011;38032;53.326;6.472;2022-12-18T07:44:57;31.77;;;15.55;;
52015;SDS011;38032;53.326;6.472;2022-12-18T07:47:25;32.50;;;15.95;;
52015;SDS011;38032;53.326;6.472;2022-12-18T07:49:51;35.13;;;16.83;;
52015;SDS011;38032;53.326;6.472;2022-12-18T07:52:17;32.00;;;16.30;;
52015;SDS011;38032;53.326;6.472;2022-12-18T07:54:43;33.47;;;16.60;;
52015;SDS011;38032;53.326;6.472;2022-12-18T07:57:09;34.45;;;15.45;;
52015;SDS011;38032;53.326;6.472;2022-12-18T07:59:35;34.75;;;16.45;;
52015;SDS011;38032;53.326;6.472;2022-12-18T08:02:00;35.50;;;15.63;;
52015;SDS011;38032;53.326;6.472;2022-12-18T08:04:26;32.30;;;15.82;;
52015;SDS011;38032;53.326;6.472;2022-12-18T08:06:52;33.35;;;15.15;;
52015;SDS011;38032;53.326;6.472;2022-12-18T08:09:18;30.42;;;15.60;;
52015;SDS011;38032;53.326;6.472;2022-12-18T08:11:44;28.85;;;15.55;;
52015;SDS011;38032;53.326;6.472;2022-12-18T08:14:10;29.77;;;15.00;;
52015;SDS011;38032;53.326;6.472;2022-12-18T08:16:36;32.55;;;16.10;;
52015;SDS011;38032;53.326;6.472;2022-12-18T08:19:03;30.77;;;15.18;;
52015;SDS011;38032;53.326;6.472;2022-12-18T08:21:30;29.52;;;14.75;;
52015;SDS011;38032;53.326;6.472;2022-12-18T08:23:57;30.77;;;15.05;;
52015;SDS011;38032;53.326;6.472;2022-12-18T08:26:26;27.10;;;14.70;;
52015;SDS011;38032;53.326;6.472;2022-12-18T08:28:54;27.95;;;15.60;;
52015;SDS011;38032;53.326;6.472;2022-12-18T08:31:21;31.25;;;14.32;;
52015;SDS011;38032;53.326;6.472;2022-12-18T08:33:49;28.38;;;14.40;;
52015;SDS011;38032;53.326;6.472;2022-12-18T08:36:17;27.33;;;13.88;;
52015;SDS011;38032;53.326;6.472;2022-12-18T08:38:45;28.63;;;15.80;;
52015;SDS011;38032;53.326;6.472;2022-12-18T08:41:12;26.85;;;14.48;;
52015;SDS011;38032;53.326;6.472;2022-12-18T08:43:39;30.77;;;14.43;;
52015;SDS011;38032;53.326;6.472;2022-12-18T08:46:25;31.33;;;14.65;;
52015;SDS011;38032;53.326;6.472;2022-12-18T08:48:53;27.42;;;14.75;;
52015;SDS011;38032;53.326;6.472;2022-12-18T08:51:21;28.35;;;15.05;;
52015;SDS011;38032;53.326;6.472;2022-12-18T08:53:47;28.50;;;14.95;;
52015;SDS011;38032;53.326;6.472;2022-12-18T08:56:13;29.90;;;15.88;;
52015;SDS011;38032;53.326;6.472;2022-12-18T08:58:39;31.20;;;15.90;;
52015;SDS011;38032;53.326;6.472;2022-12-18T09:01:07;29.58;;;15.30;;
52015;SDS011;38032;53.326;6.472;2022-12-18T09:03:34;30.98;;;14.52;;
52015;SDS011;38032;53.326;6.472;2022-12-18T09:06:01;29.40;;;15.20;;
52015;SDS011;38032;53.326;6.472;2022-12-18T09:08:27;31.40;;;16.23;;
52015;SDS011;38032;53.326;6.472;2022-12-18T09:10:54;26.45;;;14.60;;
52015;SDS011;38032;53.326;6.472;2022-12-18T09:13:20;28.00;;;14.63;;
52015;SDS011;38032;53.326;6.472;2022-12-18T09:15:47;26.60;;;15.35;;
52015;SDS011;38032;53.326;6.472;2022-12-18T09:18:15;30.10;;;15.23;;
52015;SDS011;38032;53.326;6.472;2022-12-18T09:20:42;29.17;;;14.65;;
52015;SDS011;38032;53.326;6.472;2022-12-18T09:23:09;25.70;;;14.88;;
52015;SDS011;38032;53.326;6.472;2022-12-18T09:25:36;27.33;;;14.88;;
52015;SDS011;38032;53.326;6.472;2022-12-18T09:28:03;26.20;;;14.27;;
52015;SDS011;38032;53.326;6.472;2022-12-18T09:30:32;28.45;;;14.32;;
52015;SDS011;38032;53.326;6.472;2022-12-18T09:32:59;28.08;;;14.25;;
52015;SDS011;38032;53.326;6.472;2022-12-18T09:35:25;28.92;;;14.82;;
52015;SDS011;38032;53.326;6.472;2022-12-18T09:37:53;27.55;;;14.88;;
52015;SDS011;38032;53.326;6.472;2022-12-18T09:40:21;25.80;;;14.57;;
52015;SDS011;38032;53.326;6.472;2022-12-18T09:42:52;30.08;;;15.07;;
52015;SDS011;38032;53.326;6.472;2022-12-18T09:45:22;25.17;;;14.82;;
52015;SDS011;38032;53.326;6.472;2022-12-18T09:47:49;29.05;;;15.23;;
52015;SDS011;38032;53.326;6.472;2022-12-18T09:50:23;28.08;;;14.75;;
52015;SDS011;38032;53.326;6.472;2022-12-18T09:52:55;26.30;;;13.75;;
52015;SDS011;38032;53.326;6.472;2022-12-18T09:58:02;27.83;;;14.15;;
52015;SDS011;38032;53.326;6.472;2022-12-18T10:00:32;24.92;;;14.70;;
52015;SDS011;38032;53.326;6.472;2022-12-18T10:03:01;25.20;;;14.73;;
52015;SDS011;38032;53.326;6.472;2022-12-18T10:05:37;25.70;;;14.18;;
52015;SDS011;38032;53.326;6.472;2022-12-18T10:10:43;23.52;;;13.18;;
52015;SDS011;38032;53.326;6.472;2022-12-18T10:16:00;23.33;;;13.30;;
52015;SDS011;38032;53.326;6.472;2022-12-18T10:21:15;22.92;;;12.98;;
52015;SDS011;38032;53.326;6.472;2022-12-18T10:23:54;19.35;;;12.70;;
52015;SDS011;38032;53.326;6.472;2022-12-18T10:26:38;22.30;;;12.65;;
52015;SDS011;38032;53.326;6.472;2022-12-18T10:29:09;23.33;;;12.70;;
52015;SDS011;38032;53.326;6.472;2022-12-18T10:31:37;21.45;;;12.57;;
52015;SDS011;38032;53.326;6.472;2022-12-18T10:34:04;21.35;;;11.73;;
52015;SDS011;38032;53.326;6.472;2022-12-18T10:36:34;17.92;;;11.27;;
52015;SDS011;38032;53.326;6.472;2022-12-18T10:39:15;22.40;;;11.45;;
52015;SDS011;38032;53.326;6.472;2022-12-18T10:41:42;18.58;;;11.25;;
52015;SDS011;38032;53.326;6.472;2022-12-18T10:44:16;21.90;;;12.45;;
52015;SDS011;38032;53.326;6.472;2022-12-18T10:46:49;18.08;;;10.88;;
52015;SDS011;38032;53.326;6.472;2022-12-18T10:49:23;18.25;;;10.93;;
52015;SDS011;38032;53.326;6.472;2022-12-18T10:52:03;18.02;;;11.30;;
52015;SDS011;38032;53.326;6.472;2022-12-18T10:54:39;16.23;;;9.90;;
52015;SDS011;38032;53.326;6.472;2022-12-18T10:57:15;17.80;;;10.63;;
52015;SDS011;38032;53.326;6.472;2022-12-18T10:59:55;18.58;;;11.25;;
52015;SDS011;38032;53.326;6.472;2022-12-18T11:02:35;18.48;;;10.23;;
52015;SDS011;38032;53.326;6.472;2022-12-18T11:05:04;17.02;;;10.43;;
52015;SDS011;38032;53.326;6.472;2022-12-18T11:07:55;17.30;;;9.98;;
52015;SDS011;38032;53.326;6.472;2022-12-18T11:10:25;17.38;;;9.98;;
52015;SDS011;38032;53.326;6.472;2022-12-18T11:12:54;17.63;;;9.77;;
52015;SDS011;38032;53.326;6.472;2022-12-18T11:15:21;14.52;;;9.00;;
52015;SDS011;38032;53.326;6.472;2022-12-18T11:17:52;15.65;;;8.98;;
52015;SDS011;38032;53.326;6.472;2022-12-18T11:20:20;15.70;;;8.98;;
52015;SDS011;38032;53.326;6.472;2022-12-18T11:22:54;13.13;;;8.52;;
52015;SDS011;38032;53.326;6.472;2022-12-18T11:25:22;13.45;;;8.25;;
52015;SDS011;38032;53.326;6.472;2022-12-18T11:27:52;13.70;;;8.30;;
52015;SDS011;38032;53.326;6.472;2022-12-18T11:30:26;14.23;;;8.45;;
52015;SDS011;38032;53.326;6.472;2022-12-18T11:33:03;12.35;;;8.07;;
52015;SDS011;38032;53.326;6.472;2022-12-18T11:38:10;10.85;;;7.57;;
52015;SDS011;38032;53.326;6.472;2022-12-18T11:40:43;12.27;;;7.97;;
52015;SDS011;38032;53.326;6.472;2022-12-18T11:43:14;11.75;;;7.80;;
52015;SDS011;38032;53.326;6.472;2022-12-18T11:45:47;11.18;;;7.45;;
52015;SDS011;38032;53.326;6.472;2022-12-18T11:48:22;12.93;;;7.40;;
52015;SDS011;38032;53.326;6.472;2022-12-18T11:50:56;11.80;;;7.82;;
52015;SDS011;38032;53.326;6.472;2022-12-18T11:53:25;14.65;;;8.15;;
52015;SDS011;38032;53.326;6.472;2022-12-18T11:55:58;14.88;;;8.75;;
52015;SDS011;38032;53.326;6.472;2022-12-18T12:01:13;13.25;;;7.85;;
52015;SDS011;38032;53.326;6.472;2022-12-18T12:04:01;13.75;;;8.30;;
52015;SDS011;38032;53.326;6.472;2022-12-18T12:06:45;13.25;;;8.20;;
52015;SDS011;38032;53.326;6.472;2022-12-18T12:09:27;12.05;;;7.55;;
52015;SDS011;38032;53.326;6.472;2022-12-18T12:12:24;12.60;;;7.30;;
52015;SDS011;38032;53.326;6.472;2022-12-18T12:14:58;10.70;;;7.13;;
52015;SDS011;38032;53.326;6.472;2022-12-18T12:17:46;12.38;;;7.88;;
52015;SDS011;38032;53.326;6.472;2022-12-18T12:23:34;12.63;;;7.43;;
52015;SDS011;38032;53.326;6.472;2022-12-18T12:26:24;12.18;;;7.22;;
52015;SDS011;38032;53.326;6.472;2022-12-18T12:31:45;11.68;;;6.80;;
52015;SDS011;38032;53.326;6.472;2022-12-18T12:37:02;10.48;;;6.93;;
52015;SDS011;38032;53.326;6.472;2022-12-18T12:39:47;11.02;;;6.55;;
52015;SDS011;38032;53.326;6.472;2022-12-18T12:42:29;10.30;;;6.57;;
52015;SDS011;38032;53.326;6.472;2022-12-18T12:45:21;11.80;;;7.03;;
52015;SDS011;38032;53.326;6.472;2022-12-18T12:47:53;11.02;;;7.30;;
52015;SDS011;38032;53.326;6.472;2022-12-18T12:50:21;9.13;;;6.20;;
52015;SDS011;38032;53.326;6.472;2022-12-18T12:52:52;10.40;;;6.75;;
52015;SDS011;38032;53.326;6.472;2022-12-18T12:55:22;8.75;;;6.63;;
52015;SDS011;38032;53.326;6.472;2022-12-18T12:58:11;10.43;;;7.00;;
52015;SDS011;38032;53.326;6.472;2022-12-18T13:03:24;13.35;;;7.05;;
52015;SDS011;38032;53.326;6.472;2022-12-18T13:06:04;11.65;;;6.80;;
52015;SDS011;38032;53.326;6.472;2022-12-18T13:08:53;9.48;;;6.35;;
52015;SDS011;38032;53.326;6.472;2022-12-18T13:11:29;10.65;;;6.65;;
52015;SDS011;38032;53.326;6.472;2022-12-18T13:14:25;10.75;;;6.80;;
52015;SDS011;38032;53.326;6.472;2022-12-18T13:19:49;10.20;;;6.35;;
52015;SDS011;38032;53.326;6.472;2022-12-18T13:22:20;10.18;;;6.20;;
52015;SDS011;38032;53.326;6.472;2022-12-18T13:24:49;10.88;;;6.68;;
52015;SDS011;38032;53.326;6.472;2022-12-18T13:35:51;11.07;;;6.40;;
52015;SDS011;38032;53.326;6.472;2022-12-18T13:38:35;9.95;;;6.03;;
52015;SDS011;38032;53.326;6.472;2022-12-18T13:41:10;12.35;;;6.35;;
52015;SDS011;38032;53.326;6.472;2022-12-18T13:43:49;10.20;;;6.43;;
52015;SDS011;38032;53.326;6.472;2022-12-18T13:46:19;12.40;;;6.25;;
52015;SDS011;38032;53.326;6.472;2022-12-18T13:48:52;9.23;;;5.75;;
52015;SDS011;38032;53.326;6.472;2022-12-18T13:51:46;10.95;;;6.32;;
52015;SDS011;38032;53.326;6.472;2022-12-18T13:54:19;11.75;;;6.70;;
52015;SDS011;38032;53.326;6.472;2022-12-18T13:56:50;9.68;;;6.18;;
52015;SDS011;38032;53.326;6.472;2022-12-18T13:59:19;9.63;;;6.03;;
52015;SDS011;38032;53.326;6.472;2022-12-18T14:04:26;8.63;;;6.13;;
52015;SDS011;38032;53.326;6.472;2022-12-18T14:06:56;11.50;;;6.40;;
52015;SDS011;38032;53.326;6.472;2022-12-18T14:09:28;10.45;;;6.18;;
52015;SDS011;38032;53.326;6.472;2022-12-18T14:11:56;10.38;;;6.53;;
52015;SDS011;38032;53.326;6.472;2022-12-18T14:14:43;10.57;;;6.55;;
52015;SDS011;38032;53.326;6.472;2022-12-18T14:17:12;11.45;;;6.82;;
52015;SDS011;38032;53.326;6.472;2022-12-18T14:19:41;9.63;;;5.72;;
52015;SDS011;38032;53.326;6.472;2022-12-18T14:22:14;9.45;;;6.07;;
52015;SDS011;38032;53.326;6.472;2022-12-18T14:24:43;10.13;;;6.57;;
52015;SDS011;38032;53.326;6.472;2022-12-18T14:27:13;11.68;;;6.68;;
52015;SDS011;38032;53.326;6.472;2022-12-18T14:29:46;10.93;;;6.60;;
52015;SDS011;38032;53.326;6.472;2022-12-18T14:32:14;10.70;;;6.55;;
52015;SDS011;38032;53.326;6.472;2022-12-18T14:34:43;10.15;;;6.07;;
52015;SDS011;38032;53.326;6.472;2022-12-18T14:37:10;10.75;;;6.65;;
52015;SDS011;38032;53.326;6.472;2022-12-18T14:39:38;9.73;;;6.47;;
52015;SDS011;38032;53.326;6.472;2022-12-18T14:42:04;10.32;;;6.72;;
52015;SDS011;38032;53.326;6.472;2022-12-18T14:44:30;9.70;;;6.07;;
52015;SDS011;38032;53.326;6.472;2022-12-18T14:46:55;10.63;;;6.57;;
52015;SDS011;38032;53.326;6.472;2022-12-18T14:49:31;10.35;;;6.25;;
52015;SDS011;38032;53.326;6.472;2022-12-18T14:51:59;12.68;;;6.80;;
52015;SDS011;38032;53.326;6.472;2022-12-18T14:54:28;13.57;;;7.88;;
52015;SDS011;38032;53.326;6.472;2022-12-18T14:59:50;10.25;;;6.85;;
52015;SDS011;38032;53.326;6.472;2022-12-18T15:02:21;10.27;;;6.95;;
52015;SDS011;38032;53.326;6.472;2022-12-18T15:04:59;13.45;;;7.28;;
52015;SDS011;38032;53.326;6.472;2022-12-18T15:07:41;10.82;;;6.50;;
52015;SDS011;38032;53.326;6.472;2022-12-18T15:12:40;12.60;;;7.10;;
52015;SDS011;38032;53.326;6.472;2022-12-18T15:18:15;10.45;;;6.70;;
52015;SDS011;38032;53.326;6.472;2022-12-18T15:20:45;12.45;;;7.35;;
52015;SDS011;38032;53.326;6.472;2022-12-18T15:23:18;13.77;;;7.63;;
52015;SDS011;38032;53.326;6.472;2022-12-18T15:25:47;12.13;;;7.57;;
52015;SDS011;38032;53.326;6.472;2022-12-18T15:28:23;12.73;;;7.55;;
52015;SDS011;38032;53.326;6.472;2022-12-18T15:33:35;11.60;;;7.97;;
52015;SDS011;38032;53.326;6.472;2022-12-18T15:36:03;13.35;;;7.50;;
52015;SDS011;38032;53.326;6.472;2022-12-18T15:38:36;13.30;;;8.05;;
52015;SDS011;38032;53.326;6.472;2022-12-18T15:41:02;14.77;;;8.60;;
52015;SDS011;38032;53.326;6.472;2022-12-18T15:43:31;13.23;;;7.70;;
52015;SDS011;38032;53.326;6.472;2022-12-18T15:45:59;13.93;;;8.38;;
52015;SDS011;38032;53.326;6.472;2022-12-18T15:48:26;13.45;;;8.52;;
52015;SDS011;38032;53.326;6.472;2022-12-18T15:50:52;15.20;;;8.45;;